LRDK1: Arkansas River nr Larned, KS

Data processed at Thu May 23 2019 23:50


All information presented herein is the property of the government of the United States of America and may be revised or deleted at any time without prior notice.
Dissemination of this information without the expressed written consent of the Public Affairs Office, Tulsa District U.S. Army Corps of Engineers is strictly prohibited.
These data are gathered electronically and, as presented, have not undergone any form of quality control. These data are not guaranteed to be valid or correct.
Go to home page.
Go to station list.
Go to home page.

Upstream stations:

Downstream station:
Previous Day
Next Day
Current Day
    
SHEF ID:       LRDK1     ARKANSAS R NR LARNED, KS
STATION TYPE:  

               PRECIP     STAGE  STAGE(2)  RIV-FLOW  BAT-LOAD
                   in        ft        ft       cfs      volt
              Ccp-Rev   Ccp-Rev   Ccp-Rev   Ccp-Rev   Ccp-Rev
(US/Central)
05/23 00:00      0.00     12.81      ----      3225     12.97
05/23 01:00      0.00     12.87      ----      3266     12.89
05/23 02:00      0.00     12.93      ----      3307     12.89
05/23 03:00      0.00     12.98      ----      3342     12.89
05/23 04:00      0.00     13.03      ----      3377     12.81
05/23 05:00      0.00     13.07      ----      3405     12.81
05/23 06:00      0.00     13.12      ----      3440     12.81
05/23 07:00      0.00     13.17      ----      3476     12.81
05/23 08:00      0.00     13.20      ----      3497     12.73
05/23 09:00      0.00     13.23      ----      3518     12.81
05/23 10:00      0.00     13.28      ----      3554     12.97
05/23 11:00      0.00     13.32      ----      3583     12.97
05/23 12:00      0.00     13.36      ----      3612     13.21
05/23 13:00      0.00     13.37      ----      3619     13.13
05/23 14:00      0.00     13.41      ----      3648     13.05
05/23 15:00      0.00     13.42      ----      3655     13.37
05/23 16:00      0.00     13.45      ----      3677     13.29
05/23 17:00      0.00     13.48      ----      3699     13.21
05/23 18:00      0.03     13.51      ----      3721     12.97
05/23 19:00      0.01     13.56      ----      3758     12.89
05/23 20:00      0.00     13.62      ----      3802     12.81
05/23 21:00      0.00     13.67      ----      3839     12.81
05/23 22:00      0.01     13.74      ----      3892     12.81
05/23 23:00      0.01     13.79      ----      3929     12.81